createdAt,value
2018-08-30T00:01:58.460Z,16.61
2018-08-30T00:04:27.133Z,16.56
2018-08-30T00:06:57.028Z,16.55
2018-08-30T00:09:25.813Z,16.55
2018-08-30T00:11:54.421Z,16.52
2018-08-30T00:14:23.163Z,16.48
2018-08-30T00:16:51.768Z,16.45
2018-08-30T00:19:20.397Z,16.44
2018-08-30T00:21:49.357Z,16.43
2018-08-30T00:24:24.636Z,16.38
2018-08-30T00:26:53.359Z,16.37
2018-08-30T00:29:22.079Z,16.36
2018-08-30T00:31:51.319Z,16.37
2018-08-30T00:34:20.149Z,16.34
2018-08-30T00:36:48.967Z,16.31
2018-08-30T00:39:17.647Z,16.28
2018-08-30T00:41:46.301Z,16.22
2018-08-30T00:44:15.724Z,16.23
2018-08-30T00:46:44.404Z,16.21
2018-08-30T00:49:13.028Z,16.20
2018-08-30T00:51:41.769Z,16.21
2018-08-30T00:54:10.361Z,16.17
2018-08-30T00:56:39.113Z,16.17
2018-08-30T00:59:07.748Z,16.14
2018-08-30T01:01:37.116Z,16.17
2018-08-30T01:04:05.889Z,16.13
2018-08-30T01:06:34.624Z,16.15
2018-08-30T01:09:03.380Z,16.17
2018-08-30T01:11:33.012Z,16.13
2018-08-30T01:14:01.596Z,16.15
2018-08-30T01:16:30.324Z,16.15
2018-08-30T01:18:59.028Z,16.12
2018-08-30T01:21:27.902Z,16.11
2018-08-30T01:23:57.297Z,16.11
2018-08-30T01:26:25.953Z,16.12
2018-08-30T01:28:55.353Z,16.10
2018-08-30T01:31:23.963Z,16.08
2018-08-30T01:33:52.609Z,16.09
2018-08-30T01:36:21.267Z,16.06
2018-08-30T01:38:51.123Z,16.06
2018-08-30T01:41:19.834Z,16.08
2018-08-30T01:43:48.686Z,16.03
2018-08-30T01:46:17.301Z,16.00
2018-08-30T01:48:45.904Z,15.99
2018-08-30T01:51:14.544Z,16.00
2018-08-30T01:53:43.315Z,15.94
2018-08-30T01:56:12.008Z,15.89
2018-08-30T01:58:40.669Z,15.89
2018-08-30T02:01:09.240Z,15.85
2018-08-30T02:03:38.339Z,15.78
2018-08-30T02:06:07.069Z,15.74
2018-08-30T02:08:35.659Z,15.71
2018-08-30T02:11:04.307Z,15.64
2018-08-30T02:13:33.337Z,15.61
2018-08-30T02:16:02.537Z,15.60
2018-08-30T02:18:31.207Z,15.59
2018-08-30T02:20:59.860Z,15.59
2018-08-30T02:23:28.739Z,15.57
2018-08-30T02:25:59.432Z,15.49
2018-08-30T02:28:28.328Z,15.48
2018-08-30T02:30:57.096Z,15.51
2018-08-30T02:33:26.128Z,15.52
2018-08-30T02:35:55.188Z,15.52
2018-08-30T02:38:23.883Z,15.49
2018-08-30T02:40:52.523Z,15.51
2018-08-30T02:43:21.241Z,15.53
2018-08-30T02:45:50.080Z,15.53
2018-08-30T02:48:18.727Z,15.52
2018-08-30T02:50:47.333Z,15.51
2018-08-30T02:53:16.145Z,15.49
2018-08-30T02:55:44.732Z,15.47
2018-08-30T02:58:13.403Z,15.44
2018-08-30T03:00:42.049Z,15.34
2018-08-30T03:03:11.012Z,15.33
2018-08-30T03:05:39.957Z,15.28
2018-08-30T03:08:08.615Z,15.27
2018-08-30T03:10:37.345Z,15.34
2018-08-30T03:13:05.966Z,15.29
2018-08-30T03:15:34.664Z,15.26
2018-08-30T03:18:03.362Z,15.28
2018-08-30T03:20:32.105Z,15.24
2018-08-30T03:23:00.735Z,15.19
2018-08-30T03:25:29.980Z,15.17
2018-08-30T03:27:58.723Z,15.13
2018-08-30T03:30:27.852Z,15.09
2018-08-30T03:32:56.627Z,15.07
2018-08-30T03:35:25.209Z,15.12
2018-08-30T03:37:54.288Z,15.09
2018-08-30T03:40:22.898Z,15.04
2018-08-30T03:42:51.584Z,14.98
2018-08-30T03:45:20.175Z,14.92
2018-08-30T03:47:49.585Z,14.86
2018-08-30T03:50:18.343Z,14.83
2018-08-30T03:52:46.935Z,14.80
2018-08-30T03:55:15.752Z,14.85
2018-08-30T03:57:44.623Z,14.86
2018-08-30T04:00:13.280Z,14.81
2018-08-30T04:02:42.294Z,14.81
2018-08-30T04:05:11.013Z,14.82
2018-08-30T04:07:39.718Z,14.81
2018-08-30T04:10:08.428Z,14.82
2018-08-30T04:12:37.029Z,14.78
2018-08-30T04:15:06.081Z,14.75
2018-08-30T04:17:34.701Z,14.75
2018-08-30T04:20:03.297Z,14.79
2018-08-30T04:22:31.976Z,14.87
2018-08-30T04:25:00.581Z,14.84
2018-08-30T04:27:29.198Z,14.89
2018-08-30T04:29:58.051Z,14.90
2018-08-30T04:32:26.740Z,14.98
2018-08-30T04:34:55.460Z,15.03
2018-08-30T04:37:24.184Z,15.05
2018-08-30T04:39:52.805Z,15.04
2018-08-30T04:42:22.057Z,15.09
2018-08-30T04:44:50.920Z,15.17
2018-08-30T04:47:19.574Z,15.23
2018-08-30T04:49:49.080Z,15.27
2018-08-30T04:52:18.040Z,15.32
2018-08-30T04:54:46.833Z,15.37
2018-08-30T04:57:16.102Z,15.41
2018-08-30T04:59:45.313Z,15.52
2018-08-30T05:02:14.005Z,15.60
2018-08-30T05:04:43.540Z,15.65
2018-08-30T05:07:12.380Z,15.72
2018-08-30T05:09:41.252Z,15.78
2018-08-30T05:12:10.153Z,15.88
2018-08-30T05:14:38.885Z,16.02
2018-08-30T05:17:07.756Z,16.17
2018-08-30T05:19:36.790Z,16.36
2018-08-30T05:22:06.506Z,16.53
2018-08-30T05:24:35.355Z,16.66
2018-08-30T05:27:04.005Z,16.75
2018-08-30T05:29:33.039Z,16.99
2018-08-30T05:32:01.760Z,17.21
2018-08-30T05:34:30.577Z,17.42
2018-08-30T05:36:59.256Z,17.60
2018-08-30T05:39:27.917Z,17.81
2018-08-30T05:41:56.560Z,17.97
2018-08-30T05:44:25.573Z,18.12
2018-08-30T05:46:54.908Z,18.22
2018-08-30T05:49:23.856Z,18.29
2018-08-30T05:51:53.151Z,18.59
2018-08-30T05:54:21.779Z,18.92
2018-08-30T05:56:50.463Z,19.40
2018-08-30T05:59:20.340Z,19.77
2018-08-30T06:01:48.995Z,20.08
2018-08-30T06:04:17.620Z,20.47
2018-08-30T06:06:46.348Z,20.79
2018-08-30T06:09:15.575Z,21.61
2018-08-30T06:11:50.486Z,22.78
2018-08-30T06:14:20.320Z,23.73
2018-08-30T06:16:49.581Z,24.46
2018-08-30T06:19:19.132Z,25.11
2018-08-30T06:21:48.281Z,25.65
2018-08-30T06:24:17.660Z,26.02
2018-08-30T06:26:46.885Z,26.06
2018-08-30T06:29:16.705Z,26.21
2018-08-30T06:31:46.170Z,26.88
2018-08-30T06:34:15.337Z,27.88
2018-08-30T06:36:44.805Z,28.22
2018-08-30T06:39:13.980Z,28.55
2018-08-30T06:41:43.291Z,28.86
2018-08-30T06:44:12.660Z,28.55
2018-08-30T06:46:42.030Z,27.99
2018-08-30T06:49:11.246Z,27.07
2018-08-30T06:51:40.469Z,26.54
2018-08-30T06:54:09.823Z,26.72
2018-08-30T06:56:39.004Z,27.53
2018-08-30T06:59:08.236Z,28.78
2018-08-30T07:01:37.947Z,29.71
2018-08-30T07:04:08.198Z,30.18
2018-08-30T07:06:37.722Z,30.98
2018-08-30T07:09:09.837Z,31.45
2018-08-30T07:11:39.217Z,31.46
2018-08-30T07:14:08.900Z,32.14
2018-08-30T07:16:38.164Z,32.53
2018-08-30T07:19:07.335Z,32.86
2018-08-30T07:21:36.619Z,33.32
2018-08-30T07:24:06.453Z,33.36
2018-08-30T07:26:35.791Z,33.14
2018-08-30T07:29:05.388Z,33.94
2018-08-30T07:31:34.697Z,34.30
2018-08-30T07:36:39.752Z,34.45
2018-08-30T07:39:11.221Z,34.61
2018-08-30T07:41:41.128Z,34.63
2018-08-30T07:44:11.945Z,34.48
2018-08-30T07:46:41.625Z,35.24
2018-08-30T07:49:13.277Z,35.83
2018-08-30T07:51:42.740Z,36.00
2018-08-30T07:54:11.964Z,36.08
2018-08-30T07:56:41.151Z,35.80
2018-08-30T07:59:10.427Z,35.43
2018-08-30T08:01:39.596Z,35.32
2018-08-30T08:04:08.883Z,35.06
2018-08-30T08:06:38.125Z,34.95
2018-08-30T08:09:08.818Z,35.33
2018-08-30T08:11:38.082Z,36.27
2018-08-30T08:14:07.610Z,36.30
2018-08-30T08:16:36.773Z,36.74
2018-08-30T08:19:06.022Z,37.08
2018-08-30T08:21:35.449Z,37.37
2018-08-30T08:24:04.659Z,37.02
2018-08-30T08:26:33.878Z,37.39
2018-08-30T08:29:03.070Z,38.49
2018-08-30T08:31:32.264Z,39.41
2018-08-30T08:34:01.428Z,39.50
2018-08-30T08:36:30.592Z,37.71
2018-08-30T08:38:59.784Z,36.45
2018-08-30T08:41:28.952Z,35.81
2018-08-30T08:43:58.168Z,34.90
2018-08-30T08:46:27.423Z,34.69
2018-08-30T08:48:57.112Z,33.91
2018-08-30T08:51:26.300Z,33.19
2018-08-30T08:53:55.590Z,32.79
2018-08-30T08:56:25.016Z,32.76
2018-08-30T08:58:54.752Z,32.57
2018-08-30T09:01:24.238Z,32.46
2018-08-30T09:03:53.904Z,32.22
2018-08-30T09:06:23.095Z,32.17
2018-08-30T09:08:52.294Z,31.49
2018-08-30T09:11:22.267Z,31.32
2018-08-30T09:13:51.537Z,30.92
2018-08-30T09:16:20.731Z,30.49
2018-08-30T09:18:50.024Z,30.50
2018-08-30T09:21:19.262Z,30.55
2018-08-30T09:23:48.444Z,30.49
2018-08-30T09:26:17.621Z,30.45
2018-08-30T09:28:46.838Z,30.36
2018-08-30T09:31:16.039Z,30.67
2018-08-30T09:33:45.327Z,30.92
2018-08-30T09:36:16.588Z,30.87
2018-08-30T09:38:45.770Z,31.04
2018-08-30T09:41:15.000Z,31.13
2018-08-30T09:43:44.310Z,31.23
2018-08-30T09:46:13.744Z,31.32
2018-08-30T09:48:42.889Z,31.39
2018-08-30T09:51:12.037Z,31.38
2018-08-30T09:53:41.220Z,31.20
2018-08-30T09:56:10.420Z,30.86
2018-08-30T09:58:39.636Z,30.82
2018-08-30T10:01:14.022Z,30.62
2018-08-30T10:03:43.295Z,30.61
2018-08-30T10:06:12.684Z,30.80
2018-08-30T10:08:41.885Z,30.90
2018-08-30T10:11:11.109Z,31.05
2018-08-30T10:13:40.309Z,31.03
2018-08-30T10:16:09.573Z,30.98
2018-08-30T10:18:38.941Z,30.93
2018-08-30T10:21:08.248Z,30.75
2018-08-30T10:23:39.031Z,30.39
2018-08-30T10:26:08.361Z,30.21
2018-08-30T10:28:37.521Z,30.11
2018-08-30T10:31:06.782Z,29.96
2018-08-30T10:33:36.004Z,29.38
2018-08-30T10:36:06.165Z,29.36
2018-08-30T10:38:35.376Z,29.44
2018-08-30T10:41:04.525Z,29.46
2018-08-30T10:43:33.748Z,29.51
2018-08-30T10:46:02.960Z,29.51
2018-08-30T10:48:32.224Z,29.57
2018-08-30T10:51:01.485Z,29.51
2018-08-30T10:53:30.716Z,29.49
2018-08-30T10:56:00.068Z,29.61
2018-08-30T10:58:29.458Z,29.76
2018-08-30T11:00:58.702Z,29.86
2018-08-30T11:03:28.263Z,29.96
2018-08-30T11:05:57.620Z,30.09
2018-08-30T11:08:26.796Z,30.12
2018-08-30T11:10:56.016Z,30.05
2018-08-30T11:13:25.307Z,30.08
2018-08-30T11:15:54.630Z,30.16
2018-08-30T11:18:23.837Z,30.22
2018-08-30T11:20:53.032Z,30.21
2018-08-30T11:23:22.291Z,30.13
2018-08-30T11:25:51.444Z,30.16
2018-08-30T11:28:20.649Z,30.27
2018-08-30T11:30:49.869Z,30.33
2018-08-30T11:33:19.025Z,30.36
2018-08-30T11:35:48.232Z,30.40
2018-08-30T11:38:18.614Z,30.45
2018-08-30T11:40:47.785Z,30.42
2018-08-30T11:43:17.039Z,30.41
2018-08-30T11:45:46.549Z,30.36
2018-08-30T11:48:16.210Z,30.31
2018-08-30T11:50:45.439Z,30.10
2018-08-30T11:53:14.704Z,30.14
2018-08-30T11:55:43.997Z,30.26
2018-08-30T11:58:13.296Z,30.13
2018-08-30T12:00:42.658Z,30.13
2018-08-30T12:03:12.095Z,30.23
2018-08-30T12:05:41.276Z,30.36
2018-08-30T12:08:10.505Z,30.52
2018-08-30T12:10:40.043Z,30.53
2018-08-30T12:13:09.726Z,30.56
2018-08-30T12:15:39.007Z,30.60
2018-08-30T12:18:08.179Z,30.75
2018-08-30T12:20:37.498Z,30.95
2018-08-30T12:23:07.111Z,30.99
2018-08-30T12:25:36.362Z,31.00
2018-08-30T12:28:05.758Z,31.01
2018-08-30T12:30:35.859Z,31.01
2018-08-30T12:33:05.486Z,31.05
2018-08-30T12:35:34.916Z,30.94
2018-08-30T12:38:04.602Z,30.92
2018-08-30T12:40:34.125Z,30.90
2018-08-30T12:43:03.909Z,30.84
2018-08-30T12:45:33.009Z,30.82
2018-08-30T12:48:02.615Z,30.85
2018-08-30T12:50:32.071Z,30.98
2018-08-30T12:53:02.029Z,31.18
2018-08-30T12:55:31.438Z,31.44
2018-08-30T12:58:01.443Z,31.72
2018-08-30T13:00:30.922Z,31.93
2018-08-30T13:03:00.342Z,32.07
2018-08-30T13:05:30.489Z,32.12
2018-08-30T13:07:59.891Z,31.98
2018-08-30T13:10:29.436Z,31.78
2018-08-30T13:12:58.768Z,31.74
2018-08-30T13:15:28.705Z,31.67
2018-08-30T13:17:58.031Z,31.44
2018-08-30T13:20:27.415Z,31.13
2018-08-30T13:22:56.745Z,30.85
2018-08-30T13:25:26.543Z,30.52
2018-08-30T13:27:55.944Z,30.26
2018-08-30T13:30:25.556Z,29.86
2018-08-30T13:32:54.984Z,29.32
2018-08-30T13:35:24.403Z,28.73
2018-08-30T13:37:54.331Z,28.17
2018-08-30T13:40:23.867Z,27.62
2018-08-30T13:42:53.210Z,27.26
2018-08-30T13:45:22.675Z,26.91
2018-08-30T13:47:52.251Z,26.50
2018-08-30T13:50:21.598Z,26.19
2018-08-30T13:52:51.437Z,25.93
2018-08-30T13:55:20.683Z,25.76
2018-08-30T13:57:50.347Z,25.61
2018-08-30T14:03:00.135Z,25.60
2018-08-30T14:05:29.628Z,25.57
2018-08-30T14:07:59.072Z,25.52
2018-08-30T14:10:28.644Z,25.37
2018-08-30T14:12:57.858Z,25.21
2018-08-30T14:15:27.525Z,25.09
2018-08-30T14:17:57.496Z,25.02
2018-08-30T14:20:27.086Z,24.96
2018-08-30T14:22:57.397Z,24.96
2018-08-30T14:25:27.204Z,25.00
2018-08-30T14:27:56.541Z,25.01
2018-08-30T14:30:25.865Z,24.98
2018-08-30T14:32:55.502Z,24.98
2018-08-30T14:35:24.874Z,24.92
2018-08-30T14:37:54.160Z,24.81
2018-08-30T14:40:23.778Z,24.70
2018-08-30T14:42:53.125Z,24.56
2018-08-30T14:45:22.370Z,24.42
2018-08-30T14:47:51.860Z,24.33
2018-08-30T14:50:21.421Z,24.23
2018-08-30T14:52:50.657Z,24.09
2018-08-30T14:55:20.030Z,23.95
2018-08-30T14:57:49.287Z,23.69
2018-08-30T15:00:18.736Z,23.55
2018-08-30T15:02:48.152Z,23.40
2018-08-30T15:05:17.453Z,23.35
2018-08-30T15:07:47.437Z,23.39
2018-08-30T15:10:16.664Z,23.45
2018-08-30T15:12:46.234Z,23.56
2018-08-30T15:15:15.410Z,23.62
2018-08-30T15:17:44.746Z,23.67
2018-08-30T15:20:14.287Z,23.69
2018-08-30T15:22:43.928Z,23.63
2018-08-30T15:25:13.341Z,23.62
2018-08-30T15:27:42.636Z,23.60
2018-08-30T15:30:11.909Z,23.62
2018-08-30T15:32:41.262Z,23.59
2018-08-30T15:35:10.570Z,23.58
2018-08-30T15:37:40.671Z,23.62
2018-08-30T15:40:10.141Z,23.53
2018-08-30T15:42:39.314Z,23.47
2018-08-30T15:45:08.616Z,23.41
2018-08-30T15:47:37.951Z,23.29
2018-08-30T15:50:08.241Z,23.20
2018-08-30T15:52:37.616Z,23.22
2018-08-30T15:55:06.912Z,23.21
2018-08-30T15:57:36.224Z,23.14
2018-08-30T16:00:06.900Z,23.11
2018-08-30T16:02:36.120Z,22.99
2018-08-30T16:05:05.955Z,22.85
2018-08-30T16:07:35.514Z,22.71
2018-08-30T16:10:05.310Z,22.51
2018-08-30T16:12:34.633Z,22.42
2018-08-30T16:15:03.842Z,22.34
2018-08-30T16:17:33.032Z,22.32
2018-08-30T16:20:02.330Z,22.30
2018-08-30T16:23:08.559Z,22.28
2018-08-30T16:25:37.924Z,22.22
2018-08-30T16:28:07.506Z,22.11
2018-08-30T16:30:36.411Z,22.00
2018-08-30T16:33:05.017Z,21.90
2018-08-30T16:35:33.759Z,21.80
2018-08-30T16:38:03.780Z,21.67
2018-08-30T16:40:33.182Z,21.61
2018-08-30T16:43:02.640Z,21.55
2018-08-30T16:45:31.981Z,21.45
2018-08-30T16:48:01.268Z,21.39
2018-08-30T16:50:30.837Z,21.32
2018-08-30T16:53:00.070Z,21.23
2018-08-30T16:55:29.592Z,21.18
2018-08-30T16:57:58.915Z,21.14
2018-08-30T17:00:28.291Z,21.07
2018-08-30T17:02:58.320Z,21.04
2018-08-30T17:05:27.816Z,20.99
2018-08-30T17:07:57.310Z,21.00
2018-08-30T17:10:27.387Z,20.97
2018-08-30T17:12:56.952Z,20.96
2018-08-30T17:15:26.204Z,20.90
2018-08-30T17:17:56.180Z,20.86
2018-08-30T17:20:30.026Z,20.83
2018-08-30T17:22:59.267Z,20.78
2018-08-30T17:25:29.146Z,20.69
2018-08-30T17:27:58.692Z,20.64
2018-08-30T17:30:27.299Z,20.59
2018-08-30T17:32:56.468Z,20.51
2018-08-30T17:35:26.369Z,20.48
2018-08-30T17:37:56.056Z,20.43
2018-08-30T17:40:25.424Z,20.35
2018-08-30T17:42:54.023Z,20.23
2018-08-30T17:45:22.766Z,20.15
2018-08-30T17:47:52.815Z,20.01
2018-08-30T17:50:22.384Z,19.82
2018-08-30T17:52:51.116Z,19.67
2018-08-30T17:55:20.144Z,19.56
2018-08-30T17:57:48.784Z,19.51
2018-08-30T18:00:17.741Z,19.49
2018-08-30T18:02:47.021Z,19.46
2018-08-30T18:05:16.056Z,19.46
2018-08-30T18:07:45.033Z,19.45
2018-08-30T18:10:13.631Z,19.49
2018-08-30T18:12:42.298Z,19.53
2018-08-30T18:15:13.241Z,19.57
2018-08-30T18:17:41.857Z,19.42
2018-08-30T18:20:10.928Z,19.34
2018-08-30T18:22:40.452Z,19.23
2018-08-30T18:25:09.753Z,19.15
2018-08-30T18:27:38.349Z,19.13
2018-08-30T18:30:08.628Z,19.12
2018-08-30T18:32:37.228Z,19.13
2018-08-30T18:35:07.245Z,19.32
2018-08-30T18:37:36.764Z,19.29
2018-08-30T18:40:06.039Z,19.34
2018-08-30T18:42:34.849Z,19.30
2018-08-30T18:45:03.465Z,19.35
2018-08-30T18:47:32.070Z,19.31
2018-08-30T18:50:01.359Z,19.29
2018-08-30T18:52:30.054Z,19.22
2018-08-30T18:54:58.665Z,19.25
2018-08-30T18:57:28.240Z,19.26
2018-08-30T18:59:57.511Z,19.35
2018-08-30T19:02:26.608Z,19.39
2018-08-30T19:04:55.430Z,19.45
2018-08-30T19:07:24.157Z,19.40
2018-08-30T19:09:53.026Z,19.41
2018-08-30T19:12:21.951Z,19.34
2018-08-30T19:14:50.633Z,19.28
2018-08-30T19:17:24.323Z,19.27
2018-08-30T19:19:55.920Z,19.19
2018-08-30T19:22:25.185Z,19.21
2018-08-30T19:24:59.012Z,19.21
2018-08-30T19:27:27.607Z,19.20
2018-08-30T19:30:01.588Z,19.14
2018-08-30T19:32:30.202Z,19.09
2018-08-30T19:35:02.990Z,19.15
2018-08-30T19:37:31.682Z,19.10
2018-08-30T19:40:00.906Z,19.04
2018-08-30T19:42:29.540Z,19.04
2018-08-30T19:44:58.329Z,19.00
2018-08-30T19:47:27.772Z,19.01
2018-08-30T19:49:56.472Z,19.10
2018-08-30T19:52:25.204Z,19.10
2018-08-30T19:54:54.022Z,19.07
2018-08-30T19:57:22.848Z,19.07
2018-08-30T19:59:51.501Z,19.00
2018-08-30T20:02:20.466Z,19.01
2018-08-30T20:04:49.329Z,19.05
2018-08-30T20:07:17.985Z,18.98
2018-08-30T20:09:46.734Z,18.95
2018-08-30T20:12:15.425Z,18.89
2018-08-30T20:14:44.056Z,18.91
2018-08-30T20:17:12.760Z,18.91
2018-08-30T20:19:41.352Z,18.93
2018-08-30T20:22:11.905Z,18.96
2018-08-30T20:24:40.833Z,18.95
2018-08-30T20:27:10.136Z,18.94
2018-08-30T20:29:39.107Z,18.99
2018-08-30T20:32:07.752Z,18.94
2018-08-30T20:34:37.072Z,18.90
2018-08-30T20:37:06.204Z,18.86
2018-08-30T20:39:34.796Z,18.85
2018-08-30T20:42:03.665Z,18.90
2018-08-30T20:44:32.385Z,18.83
2018-08-30T20:47:08.927Z,18.73
2018-08-30T20:49:37.633Z,18.73
2018-08-30T20:52:06.913Z,18.71
2018-08-30T20:54:35.507Z,18.70
2018-08-30T20:57:04.173Z,18.62
2018-08-30T20:59:33.005Z,18.54
2018-08-30T21:02:01.906Z,18.44
2018-08-30T21:04:30.685Z,18.44
2018-08-30T21:06:59.837Z,18.38
2018-08-30T21:09:28.831Z,18.34
2018-08-30T21:11:57.556Z,18.28
2018-08-30T21:14:26.293Z,18.24
2018-08-30T21:16:54.907Z,18.33
2018-08-30T21:19:23.501Z,18.40
2018-08-30T21:21:52.232Z,18.35
2018-08-30T21:24:20.823Z,18.39
2018-08-30T21:26:49.460Z,18.44
2018-08-30T21:29:18.194Z,18.35
2018-08-30T21:31:46.786Z,18.31
2018-08-30T21:34:15.396Z,18.33
2018-08-30T21:36:44.052Z,18.37
2018-08-30T21:39:13.456Z,18.37
2018-08-30T21:41:42.121Z,18.43
2018-08-30T21:44:10.742Z,18.43
2018-08-30T21:46:39.460Z,18.39
2018-08-30T21:49:08.180Z,18.38
2018-08-30T21:51:37.032Z,18.40
2018-08-30T21:54:05.866Z,18.36
2018-08-30T21:56:34.488Z,18.30
2018-08-30T21:59:03.361Z,18.17
2018-08-30T22:01:33.080Z,17.99
2018-08-30T22:04:01.730Z,17.89
2018-08-30T22:06:30.357Z,17.75
2018-08-30T22:08:59.058Z,17.60
2018-08-30T22:11:27.722Z,17.58
2018-08-30T22:13:56.841Z,17.51
2018-08-30T22:16:25.833Z,17.48
2018-08-30T22:18:54.487Z,17.49
2018-08-30T22:21:23.184Z,17.52
2018-08-30T22:23:51.920Z,17.49
2018-08-30T22:26:20.606Z,17.51
2018-08-30T22:28:49.308Z,17.59
2018-08-30T22:31:18.683Z,17.60
2018-08-30T22:33:47.361Z,17.64
2018-08-30T22:36:16.316Z,17.65
2018-08-30T22:38:45.017Z,17.62
2018-08-30T22:41:13.636Z,17.69
2018-08-30T22:43:42.304Z,17.74
2018-08-30T22:46:10.969Z,17.72
2018-08-30T22:48:39.556Z,17.66
2018-08-30T22:51:08.189Z,17.56
2018-08-30T22:53:36.993Z,17.54
2018-08-30T22:56:05.899Z,17.50
2018-08-30T22:58:34.724Z,17.43
2018-08-30T23:01:05.537Z,17.36
2018-08-30T23:03:34.540Z,17.34
2018-08-30T23:06:03.425Z,17.34
2018-08-30T23:08:32.108Z,17.36
2018-08-30T23:11:00.865Z,17.34
2018-08-30T23:13:30.357Z,17.37
2018-08-30T23:15:59.040Z,17.37
2018-08-30T23:18:28.492Z,17.32
2018-08-30T23:20:57.090Z,17.33
2018-08-30T23:23:25.672Z,17.32
2018-08-30T23:25:54.415Z,17.38
2018-08-30T23:28:23.035Z,17.33
2018-08-30T23:30:51.936Z,17.28
2018-08-30T23:33:20.656Z,17.28
2018-08-30T23:35:49.677Z,17.25
2018-08-30T23:38:18.265Z,17.19
2018-08-30T23:40:47.157Z,17.15
2018-08-30T23:43:15.790Z,17.06
2018-08-30T23:45:44.535Z,16.87
2018-08-30T23:48:13.431Z,16.77
2018-08-30T23:50:42.068Z,16.61
2018-08-30T23:53:10.709Z,16.58
2018-08-30T23:55:39.388Z,16.45
2018-08-30T23:58:19.124Z,16.49
